sensor_id;sensor_type;location;lat;lon;timestamp;temperature;humidity
46932;DHT22;32670;51.464;11.964;2022-11-14T00:01:59;23.70;46.90
46932;DHT22;32670;51.464;11.964;2022-11-14T00:04:24;23.70;46.90
46932;DHT22;32670;51.464;11.964;2022-11-14T00:06:50;23.70;46.80
46932;DHT22;32670;51.464;11.964;2022-11-14T00:09:15;23.70;46.80
46932;DHT22;32670;51.464;11.964;2022-11-14T00:11:41;23.70;46.80
46932;DHT22;32670;51.464;11.964;2022-11-14T00:14:08;23.70;46.70
46932;DHT22;32670;51.464;11.964;2022-11-14T00:16:33;23.70;46.70
46932;DHT22;32670;51.464;11.964;2022-11-14T00:18:59;23.70;46.80
46932;DHT22;32670;51.464;11.964;2022-11-14T00:21:24;23.80;46.70
46932;DHT22;32670;51.464;11.964;2022-11-14T00:23:50;23.70;46.70
46932;DHT22;32670;51.464;11.964;2022-11-14T00:26:15;23.70;46.70
46932;DHT22;32670;51.464;11.964;2022-11-14T00:28:41;23.70;46.70
46932;DHT22;32670;51.464;11.964;2022-11-14T00:31:09;23.70;46.60
46932;DHT22;32670;51.464;11.964;2022-11-14T00:33:34;23.70;46.60
46932;DHT22;32670;51.464;11.964;2022-11-14T00:36:00;23.70;46.50
46932;DHT22;32670;51.464;11.964;2022-11-14T00:38:25;23.70;46.50
46932;DHT22;32670;51.464;11.964;2022-11-14T00:40:51;23.70;46.50
46932;DHT22;32670;51.464;11.964;2022-11-14T00:43:17;23.70;46.50
46932;DHT22;32670;51.464;11.964;2022-11-14T00:45:46;23.70;46.50
46932;DHT22;32670;51.464;11.964;2022-11-14T00:48:12;23.70;46.50
46932;DHT22;32670;51.464;11.964;2022-11-14T00:50:38;23.70;46.50
46932;DHT22;32670;51.464;11.964;2022-11-14T00:53:04;23.70;46.40
46932;DHT22;32670;51.464;11.964;2022-11-14T00:55:29;23.70;46.40
46932;DHT22;32670;51.464;11.964;2022-11-14T00:57:55;23.70;46.30
46932;DHT22;32670;51.464;11.964;2022-11-14T01:00:20;23.70;46.40
46932;DHT22;32670;51.464;11.964;2022-11-14T01:02:46;23.70;46.30
46932;DHT22;32670;51.464;11.964;2022-11-14T01:05:12;23.70;46.30
46932;DHT22;32670;51.464;11.964;2022-11-14T01:07:37;23.70;46.30
46932;DHT22;32670;51.464;11.964;2022-11-14T01:10:03;23.70;46.30
46932;DHT22;32670;51.464;11.964;2022-11-14T01:12:29;23.70;46.30
46932;DHT22;32670;51.464;11.964;2022-11-14T01:14:55;23.70;46.30
46932;DHT22;32670;51.464;11.964;2022-11-14T01:17:20;23.70;46.20
46932;DHT22;32670;51.464;11.964;2022-11-14T01:19:46;23.70;46.20
46932;DHT22;32670;51.464;11.964;2022-11-14T01:22:11;23.70;46.30
46932;DHT22;32670;51.464;11.964;2022-11-14T01:24:37;23.70;46.20
46932;DHT22;32670;51.464;11.964;2022-11-14T01:27:02;23.70;46.20
46932;DHT22;32670;51.464;11.964;2022-11-14T01:29:28;23.70;46.20
46932;DHT22;32670;51.464;11.964;2022-11-14T01:31:54;23.70;46.10
46932;DHT22;32670;51.464;11.964;2022-11-14T01:34:19;23.70;46.10
46932;DHT22;32670;51.464;11.964;2022-11-14T01:36:45;23.70;46.10
46932;DHT22;32670;51.464;11.964;2022-11-14T01:39:11;23.70;46.10
46932;DHT22;32670;51.464;11.964;2022-11-14T01:41:36;23.70;46.10
46932;DHT22;32670;51.464;11.964;2022-11-14T01:44:02;23.60;46.00
46932;DHT22;32670;51.464;11.964;2022-11-14T01:46:36;23.70;46.00
46932;DHT22;32670;51.464;11.964;2022-11-14T01:49:10;23.70;46.00
46932;DHT22;32670;51.464;11.964;2022-11-14T01:51:44;23.70;46.00
46932;DHT22;32670;51.464;11.964;2022-11-14T01:54:27;23.70;46.00
46932;DHT22;32670;51.464;11.964;2022-11-14T01:57:00;23.70;46.00
46932;DHT22;32670;51.464;11.964;2022-11-14T01:59:43;23.70;45.90
46932;DHT22;32670;51.464;11.964;2022-11-14T02:02:22;23.70;45.90
46932;DHT22;32670;51.464;11.964;2022-11-14T02:04:55;23.70;45.90
46932;DHT22;32670;51.464;11.964;2022-11-14T02:07:24;23.70;45.90
46932;DHT22;32670;51.464;11.964;2022-11-14T02:09:50;23.70;45.80
46932;DHT22;32670;51.464;11.964;2022-11-14T02:12:17;23.70;45.80
46932;DHT22;32670;51.464;11.964;2022-11-14T02:14:46;23.70;45.80
46932;DHT22;32670;51.464;11.964;2022-11-14T02:17:13;23.70;45.80
46932;DHT22;32670;51.464;11.964;2022-11-14T02:19:52;23.70;45.80
46932;DHT22;32670;51.464;11.964;2022-11-14T02:22:18;23.70;45.80
46932;DHT22;32670;51.464;11.964;2022-11-14T02:24:44;23.70;45.80
46932;DHT22;32670;51.464;11.964;2022-11-14T02:27:11;23.70;45.80
46932;DHT22;32670;51.464;11.964;2022-11-14T02:29:38;23.70;45.70
46932;DHT22;32670;51.464;11.964;2022-11-14T02:32:04;23.70;45.80
46932;DHT22;32670;51.464;11.964;2022-11-14T02:34:30;23.70;45.70
46932;DHT22;32670;51.464;11.964;2022-11-14T02:36:55;23.70;45.70
46932;DHT22;32670;51.464;11.964;2022-11-14T02:39:22;23.70;45.70
46932;DHT22;32670;51.464;11.964;2022-11-14T02:41:49;23.70;46.30
46932;DHT22;32670;51.464;11.964;2022-11-14T02:44:14;23.70;45.80
46932;DHT22;32670;51.464;11.964;2022-11-14T02:46:40;23.60;45.60
46932;DHT22;32670;51.464;11.964;2022-11-14T02:49:05;23.70;45.70
46932;DHT22;32670;51.464;11.964;2022-11-14T02:51:31;23.70;45.70
46932;DHT22;32670;51.464;11.964;2022-11-14T02:53:56;23.70;45.60
46932;DHT22;32670;51.464;11.964;2022-11-14T02:56:22;23.60;45.50
46932;DHT22;32670;51.464;11.964;2022-11-14T02:58:47;23.70;46.20
46932;DHT22;32670;51.464;11.964;2022-11-14T03:01:13;23.70;45.60
46932;DHT22;32670;51.464;11.964;2022-11-14T03:03:38;23.60;45.50
46932;DHT22;32670;51.464;11.964;2022-11-14T03:06:04;23.70;45.60
46932;DHT22;32670;51.464;11.964;2022-11-14T03:08:29;23.70;45.60
46932;DHT22;32670;51.464;11.964;2022-11-14T03:10:55;23.60;45.50
46932;DHT22;32670;51.464;11.964;2022-11-14T03:13:21;23.70;45.50
46932;DHT22;32670;51.464;11.964;2022-11-14T03:15:46;23.70;45.50
46932;DHT22;32670;51.464;11.964;2022-11-14T03:18:12;23.70;45.60
46932;DHT22;32670;51.464;11.964;2022-11-14T03:20:38;23.60;45.40
46932;DHT22;32670;51.464;11.964;2022-11-14T03:23:04;23.70;45.50
46932;DHT22;32670;51.464;11.964;2022-11-14T03:25:29;23.60;45.40
46932;DHT22;32670;51.464;11.964;2022-11-14T03:27:55;23.60;45.40
46932;DHT22;32670;51.464;11.964;2022-11-14T03:30:20;23.70;45.50
46932;DHT22;32670;51.464;11.964;2022-11-14T03:32:46;23.70;45.50
46932;DHT22;32670;51.464;11.964;2022-11-14T03:35:12;23.70;45.40
46932;DHT22;32670;51.464;11.964;2022-11-14T03:37:37;23.60;45.40
46932;DHT22;32670;51.464;11.964;2022-11-14T03:40:03;23.60;45.40
46932;DHT22;32670;51.464;11.964;2022-11-14T03:42:32;23.70;45.40
46932;DHT22;32670;51.464;11.964;2022-11-14T03:44:58;23.60;45.30
46932;DHT22;32670;51.464;11.964;2022-11-14T03:47:24;23.60;45.30
46932;DHT22;32670;51.464;11.964;2022-11-14T03:49:49;23.70;45.40
46932;DHT22;32670;51.464;11.964;2022-11-14T03:52:15;23.70;45.30
46932;DHT22;32670;51.464;11.964;2022-11-14T03:54:40;23.70;45.40
46932;DHT22;32670;51.464;11.964;2022-11-14T03:57:06;23.70;45.40
46932;DHT22;32670;51.464;11.964;2022-11-14T03:59:31;23.70;45.40
46932;DHT22;32670;51.464;11.964;2022-11-14T04:01:57;23.70;45.40
46932;DHT22;32670;51.464;11.964;2022-11-14T04:04:23;23.70;45.30
46932;DHT22;32670;51.464;11.964;2022-11-14T04:06:48;23.70;45.30
46932;DHT22;32670;51.464;11.964;2022-11-14T04:09:14;23.70;45.30
46932;DHT22;32670;51.464;11.964;2022-11-14T04:11:39;23.70;45.30
46932;DHT22;32670;51.464;11.964;2022-11-14T04:14:04;23.60;45.20
46932;DHT22;32670;51.464;11.964;2022-11-14T04:16:30;23.70;45.30
46932;DHT22;32670;51.464;11.964;2022-11-14T04:18:55;23.70;45.20
46932;DHT22;32670;51.464;11.964;2022-11-14T04:21:21;23.60;45.10
46932;DHT22;32670;51.464;11.964;2022-11-14T04:23:46;23.60;45.20
46932;DHT22;32670;51.464;11.964;2022-11-14T04:26:12;23.60;45.20
46932;DHT22;32670;51.464;11.964;2022-11-14T04:28:37;23.70;45.20
46932;DHT22;32670;51.464;11.964;2022-11-14T04:31:03;23.70;45.20
46932;DHT22;32670;51.464;11.964;2022-11-14T04:33:28;23.60;45.20
46932;DHT22;32670;51.464;11.964;2022-11-14T04:35:54;23.70;45.20
46932;DHT22;32670;51.464;11.964;2022-11-14T04:38:19;23.60;45.10
46932;DHT22;32670;51.464;11.964;2022-11-14T04:40:49;23.70;45.20
46932;DHT22;32670;51.464;11.964;2022-11-14T04:43:15;23.70;45.20
46932;DHT22;32670;51.464;11.964;2022-11-14T04:45:40;23.70;45.20
46932;DHT22;32670;51.464;11.964;2022-11-14T04:48:06;23.70;45.20
46932;DHT22;32670;51.464;11.964;2022-11-14T04:50:31;23.70;45.20
46932;DHT22;32670;51.464;11.964;2022-11-14T04:52:57;23.60;45.10
46932;DHT22;32670;51.464;11.964;2022-11-14T04:55:22;23.60;45.10
46932;DHT22;32670;51.464;11.964;2022-11-14T04:57:53;23.70;45.20
46932;DHT22;32670;51.464;11.964;2022-11-14T05:00:19;23.60;45.00
46932;DHT22;32670;51.464;11.964;2022-11-14T05:02:45;23.60;45.00
46932;DHT22;32670;51.464;11.964;2022-11-14T05:05:10;23.70;45.10
46932;DHT22;32670;51.464;11.964;2022-11-14T05:07:35;23.70;45.10
46932;DHT22;32670;51.464;11.964;2022-11-14T05:10:01;23.60;45.00
46932;DHT22;32670;51.464;11.964;2022-11-14T05:12:27;23.60;45.10
46932;DHT22;32670;51.464;11.964;2022-11-14T05:14:52;23.70;45.10
46932;DHT22;32670;51.464;11.964;2022-11-14T05:17:18;23.70;45.10
46932;DHT22;32670;51.464;11.964;2022-11-14T05:19:43;23.60;45.00
46932;DHT22;32670;51.464;11.964;2022-11-14T05:22:09;23.60;45.10
46932;DHT22;32670;51.464;11.964;2022-11-14T05:24:34;23.60;45.60
46932;DHT22;32670;51.464;11.964;2022-11-14T05:27:00;23.60;45.10
46932;DHT22;32670;51.464;11.964;2022-11-14T05:29:25;23.60;45.10
46932;DHT22;32670;51.464;11.964;2022-11-14T05:31:51;23.70;45.20
46932;DHT22;32670;51.464;11.964;2022-11-14T05:34:16;23.60;45.10
46932;DHT22;32670;51.464;11.964;2022-11-14T05:36:42;23.70;45.20
46932;DHT22;32670;51.464;11.964;2022-11-14T05:39:07;23.70;45.20
46932;DHT22;32670;51.464;11.964;2022-11-14T05:41:33;23.70;45.10
46932;DHT22;32670;51.464;11.964;2022-11-14T05:43:58;23.70;45.20
46932;DHT22;32670;51.464;11.964;2022-11-14T05:46:24;23.70;45.20
46932;DHT22;32670;51.464;11.964;2022-11-14T05:48:49;23.70;45.10
46932;DHT22;32670;51.464;11.964;2022-11-14T05:51:15;23.60;45.10
46932;DHT22;32670;51.464;11.964;2022-11-14T05:53:40;23.70;45.10
46932;DHT22;32670;51.464;11.964;2022-11-14T05:56:09;23.70;45.20
46932;DHT22;32670;51.464;11.964;2022-11-14T05:58:36;23.60;45.10
46932;DHT22;32670;51.464;11.964;2022-11-14T06:01:10;23.60;45.10
46932;DHT22;32670;51.464;11.964;2022-11-14T06:03:38;23.70;45.10
46932;DHT22;32670;51.464;11.964;2022-11-14T06:06:05;23.60;45.00
46932;DHT22;32670;51.464;11.964;2022-11-14T06:08:31;23.70;45.10
46932;DHT22;32670;51.464;11.964;2022-11-14T06:11:04;23.70;45.10
46932;DHT22;32670;51.464;11.964;2022-11-14T06:13:31;23.70;45.10
46932;DHT22;32670;51.464;11.964;2022-11-14T06:16:05;23.70;45.10
46932;DHT22;32670;51.464;11.964;2022-11-14T06:18:32;23.60;45.00
46932;DHT22;32670;51.464;11.964;2022-11-14T06:21:03;23.70;45.10
46932;DHT22;32670;51.464;11.964;2022-11-14T06:23:29;23.70;45.10
46932;DHT22;32670;51.464;11.964;2022-11-14T06:26:03;23.70;45.10
46932;DHT22;32670;51.464;11.964;2022-11-14T06:28:29;23.70;45.10
46932;DHT22;32670;51.464;11.964;2022-11-14T06:31:02;23.70;45.10
46932;DHT22;32670;51.464;11.964;2022-11-14T06:33:32;23.60;45.00
46932;DHT22;32670;51.464;11.964;2022-11-14T06:36:03;23.70;45.10
46932;DHT22;32670;51.464;11.964;2022-11-14T06:38:30;23.70;45.10
46932;DHT22;32670;51.464;11.964;2022-11-14T06:41:09;23.70;45.10
46932;DHT22;32670;51.464;11.964;2022-11-14T06:43:36;23.70;45.30
46932;DHT22;32670;51.464;11.964;2022-11-14T06:46:03;23.70;45.30
46932;DHT22;32670;51.464;11.964;2022-11-14T06:48:29;23.70;45.50
46932;DHT22;32670;51.464;11.964;2022-11-14T06:50:56;23.60;36.50
46932;DHT22;32670;51.464;11.964;2022-11-14T06:53:22;23.30;33.40
46932;DHT22;32670;51.464;11.964;2022-11-14T06:55:55;23.00;33.30
46932;DHT22;32670;51.464;11.964;2022-11-14T06:58:21;23.00;38.80
46932;DHT22;32670;51.464;11.964;2022-11-14T07:00:46;23.10;39.50
46932;DHT22;32670;51.464;11.964;2022-11-14T07:03:12;23.20;39.60
46932;DHT22;32670;51.464;11.964;2022-11-14T07:05:38;23.30;39.70
46932;DHT22;32670;51.464;11.964;2022-11-14T07:08:03;23.40;39.80
46932;DHT22;32670;51.464;11.964;2022-11-14T07:10:29;23.40;40.20
46932;DHT22;32670;51.464;11.964;2022-11-14T07:12:54;23.50;40.50
46932;DHT22;32670;51.464;11.964;2022-11-14T07:15:20;23.50;40.70
46932;DHT22;32670;51.464;11.964;2022-11-14T07:17:45;23.50;41.00
46932;DHT22;32670;51.464;11.964;2022-11-14T07:20:13;23.60;41.20
46932;DHT22;32670;51.464;11.964;2022-11-14T07:22:39;23.60;41.50
46932;DHT22;32670;51.464;11.964;2022-11-14T07:25:05;23.60;41.70
46932;DHT22;32670;51.464;11.964;2022-11-14T07:27:30;23.60;41.70
46932;DHT22;32670;51.464;11.964;2022-11-14T07:29:56;23.60;42.20
46932;DHT22;32670;51.464;11.964;2022-11-14T07:32:21;23.60;42.40
46932;DHT22;32670;51.464;11.964;2022-11-14T07:34:47;23.60;42.90
46932;DHT22;32670;51.464;11.964;2022-11-14T07:37:12;23.60;42.80
46932;DHT22;32670;51.464;11.964;2022-11-14T07:39:38;23.70;42.90
46932;DHT22;32670;51.464;11.964;2022-11-14T07:42:03;23.70;43.10
46932;DHT22;32670;51.464;11.964;2022-11-14T07:44:29;23.70;43.20
46932;DHT22;32670;51.464;11.964;2022-11-14T07:46:54;23.70;43.40
46932;DHT22;32670;51.464;11.964;2022-11-14T07:49:20;23.70;43.50
46932;DHT22;32670;51.464;11.964;2022-11-14T07:51:45;23.70;43.60
46932;DHT22;32670;51.464;11.964;2022-11-14T07:54:11;23.80;43.80
46932;DHT22;32670;51.464;11.964;2022-11-14T07:56:37;23.70;43.80
46932;DHT22;32670;51.464;11.964;2022-11-14T07:59:03;23.70;43.80
46932;DHT22;32670;51.464;11.964;2022-11-14T08:01:28;23.80;43.80
46932;DHT22;32670;51.464;11.964;2022-11-14T08:03:53;23.80;43.50
46932;DHT22;32670;51.464;11.964;2022-11-14T08:06:19;23.80;43.30
46932;DHT22;32670;51.464;11.964;2022-11-14T08:08:44;23.80;43.20
46932;DHT22;32670;51.464;11.964;2022-11-14T08:11:10;23.80;43.10
46932;DHT22;32670;51.464;11.964;2022-11-14T08:13:36;23.80;42.90
46932;DHT22;32670;51.464;11.964;2022-11-14T08:16:08;23.80;43.20
46932;DHT22;32670;51.464;11.964;2022-11-14T08:18:35;23.80;43.30
46932;DHT22;32670;51.464;11.964;2022-11-14T08:21:04;23.80;43.30
46932;DHT22;32670;51.464;11.964;2022-11-14T08:23:30;23.80;43.60
46932;DHT22;32670;51.464;11.964;2022-11-14T08:25:57;23.80;43.70
46932;DHT22;32670;51.464;11.964;2022-11-14T08:28:23;23.90;43.40
46932;DHT22;32670;51.464;11.964;2022-11-14T08:30:48;23.80;43.20
46932;DHT22;32670;51.464;11.964;2022-11-14T08:33:14;23.90;43.10
46932;DHT22;32670;51.464;11.964;2022-11-14T08:35:39;23.90;43.20
46932;DHT22;32670;51.464;11.964;2022-11-14T08:38:05;23.80;43.10
46932;DHT22;32670;51.464;11.964;2022-11-14T08:40:30;23.80;43.00
46932;DHT22;32670;51.464;11.964;2022-11-14T08:43:00;23.80;43.20
46932;DHT22;32670;51.464;11.964;2022-11-14T08:45:27;23.90;43.30
46932;DHT22;32670;51.464;11.964;2022-11-14T08:47:53;23.90;43.30
46932;DHT22;32670;51.464;11.964;2022-11-14T08:50:18;23.90;43.30
46932;DHT22;32670;51.464;11.964;2022-11-14T08:52:49;23.90;43.40
46932;DHT22;32670;51.464;11.964;2022-11-14T08:55:15;23.90;43.40
46932;DHT22;32670;51.464;11.964;2022-11-14T08:57:41;23.90;43.80
46932;DHT22;32670;51.464;11.964;2022-11-14T09:00:07;23.90;44.20
46932;DHT22;32670;51.464;11.964;2022-11-14T09:02:33;23.90;43.70
46932;DHT22;32670;51.464;11.964;2022-11-14T09:04:58;23.90;43.80
46932;DHT22;32670;51.464;11.964;2022-11-14T09:07:24;23.90;43.80
46932;DHT22;32670;51.464;11.964;2022-11-14T09:09:49;23.90;44.50
46932;DHT22;32670;51.464;11.964;2022-11-14T09:12:15;23.90;44.80
46932;DHT22;32670;51.464;11.964;2022-11-14T09:14:42;23.90;44.90
46932;DHT22;32670;51.464;11.964;2022-11-14T09:17:07;24.00;44.90
46932;DHT22;32670;51.464;11.964;2022-11-14T09:19:33;24.00;44.80
46932;DHT22;32670;51.464;11.964;2022-11-14T09:21:58;24.00;44.80
46932;DHT22;32670;51.464;11.964;2022-11-14T09:24:24;24.00;45.00
46932;DHT22;32670;51.464;11.964;2022-11-14T09:26:50;24.00;45.10
46932;DHT22;32670;51.464;11.964;2022-11-14T09:29:16;24.00;45.10
46932;DHT22;32670;51.464;11.964;2022-11-14T09:31:43;24.00;45.20
46932;DHT22;32670;51.464;11.964;2022-11-14T09:34:09;24.00;45.30
46932;DHT22;32670;51.464;11.964;2022-11-14T09:36:34;24.00;45.30
46932;DHT22;32670;51.464;11.964;2022-11-14T09:39:00;24.00;45.20
46932;DHT22;32670;51.464;11.964;2022-11-14T09:42:05;24.00;45.30
46932;DHT22;32670;51.464;11.964;2022-11-14T09:44:33;24.00;45.30
46932;DHT22;32670;51.464;11.964;2022-11-14T09:47:12;24.00;45.30
46932;DHT22;32670;51.464;11.964;2022-11-14T09:49:45;24.10;45.40
46932;DHT22;32670;51.464;11.964;2022-11-14T09:52:36;24.10;44.90
46932;DHT22;32670;51.464;11.964;2022-11-14T09:55:12;24.10;44.90
46932;DHT22;32670;51.464;11.964;2022-11-14T09:57:42;24.10;44.80
46932;DHT22;32670;51.464;11.964;2022-11-14T10:00:22;24.20;45.10
46932;DHT22;32670;51.464;11.964;2022-11-14T10:03:11;24.20;44.70
46932;DHT22;32670;51.464;11.964;2022-11-14T10:11:09;24.40;44.30
46932;DHT22;32670;51.464;11.964;2022-11-14T10:14:07;24.50;44.20
46932;DHT22;32670;51.464;11.964;2022-11-14T10:16:53;24.50;44.20
46932;DHT22;32670;51.464;11.964;2022-11-14T10:19:52;24.60;44.20
46932;DHT22;32670;51.464;11.964;2022-11-14T10:22:58;24.60;38.90
46932;DHT22;32670;51.464;11.964;2022-11-14T10:31:18;24.40;34.60
46932;DHT22;32670;51.464;11.964;2022-11-14T10:34:05;24.20;34.20
46932;DHT22;32670;51.464;11.964;2022-11-14T10:37:09;24.20;34.10
46932;DHT22;32670;51.464;11.964;2022-11-14T10:39:45;24.10;33.70
46932;DHT22;32670;51.464;11.964;2022-11-14T10:45:25;24.10;33.80
46932;DHT22;32670;51.464;11.964;2022-11-14T10:47:56;24.10;34.20
46932;DHT22;32670;51.464;11.964;2022-11-14T10:50:32;24.00;34.70
46932;DHT22;32670;51.464;11.964;2022-11-14T10:53:04;24.00;34.80
46932;DHT22;32670;51.464;11.964;2022-11-14T10:55:31;24.00;35.40
46932;DHT22;32670;51.464;11.964;2022-11-14T10:57:56;24.10;36.40
46932;DHT22;32670;51.464;11.964;2022-11-14T11:00:22;24.10;37.40
46932;DHT22;32670;51.464;11.964;2022-11-14T11:02:53;24.20;38.00
46932;DHT22;32670;51.464;11.964;2022-11-14T11:05:22;24.20;38.50
46932;DHT22;32670;51.464;11.964;2022-11-14T11:07:48;24.30;38.50
46932;DHT22;32670;51.464;11.964;2022-11-14T11:10:38;24.30;38.60
46932;DHT22;32670;51.464;11.964;2022-11-14T11:13:34;24.40;39.10
46932;DHT22;32670;51.464;11.964;2022-11-14T11:16:03;24.40;39.00
46932;DHT22;32670;51.464;11.964;2022-11-14T11:18:31;24.40;39.30
46932;DHT22;32670;51.464;11.964;2022-11-14T11:21:11;24.50;39.70
46932;DHT22;32670;51.464;11.964;2022-11-14T11:23:56;24.50;39.90
46932;DHT22;32670;51.464;11.964;2022-11-14T11:26:30;24.50;40.40
46932;DHT22;32670;51.464;11.964;2022-11-14T11:31:27;24.60;41.60
46932;DHT22;32670;51.464;11.964;2022-11-14T11:33:53;24.60;41.50
46932;DHT22;32670;51.464;11.964;2022-11-14T11:36:21;24.60;41.30
46932;DHT22;32670;51.464;11.964;2022-11-14T11:38:48;24.60;41.90
46932;DHT22;32670;51.464;11.964;2022-11-14T11:41:35;24.60;42.10
46932;DHT22;32670;51.464;11.964;2022-11-14T11:44:04;24.60;42.20
46932;DHT22;32670;51.464;11.964;2022-11-14T11:46:48;24.60;42.40
46932;DHT22;32670;51.464;11.964;2022-11-14T11:51:53;24.20;38.40
46932;DHT22;32670;51.464;11.964;2022-11-14T11:54:45;24.20;39.10
46932;DHT22;32670;51.464;11.964;2022-11-14T11:57:15;24.30;40.10
46932;DHT22;32670;51.464;11.964;2022-11-14T11:59:45;24.40;40.80
46932;DHT22;32670;51.464;11.964;2022-11-14T12:02:26;24.40;40.90
46932;DHT22;32670;51.464;11.964;2022-11-14T12:04:54;24.50;41.10
46932;DHT22;32670;51.464;11.964;2022-11-14T12:09:49;24.60;42.10
46932;DHT22;32670;51.464;11.964;2022-11-14T12:12:23;24.50;41.90
46932;DHT22;32670;51.464;11.964;2022-11-14T12:15:40;24.60;42.00
46932;DHT22;32670;51.464;11.964;2022-11-14T12:18:03;24.60;42.10
46932;DHT22;32670;51.464;11.964;2022-11-14T12:20:51;24.60;42.20
46932;DHT22;32670;51.464;11.964;2022-11-14T12:23:54;24.70;42.50
46932;DHT22;32670;51.464;11.964;2022-11-14T12:26:41;24.70;42.60
46932;DHT22;32670;51.464;11.964;2022-11-14T12:29:39;24.70;42.70
46932;DHT22;32670;51.464;11.964;2022-11-14T12:32:14;24.70;42.80
46932;DHT22;32670;51.464;11.964;2022-11-14T12:34:44;24.70;42.90
46932;DHT22;32670;51.464;11.964;2022-11-14T12:37:18;24.80;43.00
46932;DHT22;32670;51.464;11.964;2022-11-14T12:39:59;24.80;43.10
46932;DHT22;32670;51.464;11.964;2022-11-14T12:42:26;24.80;43.20
46932;DHT22;32670;51.464;11.964;2022-11-14T12:44:51;24.80;43.30
46932;DHT22;32670;51.464;11.964;2022-11-14T12:47:22;24.80;43.40
46932;DHT22;32670;51.464;11.964;2022-11-14T12:58:00;24.80;43.60
46932;DHT22;32670;51.464;11.964;2022-11-14T13:00:29;24.80;43.60
46932;DHT22;32670;51.464;11.964;2022-11-14T13:03:04;24.80;43.80
46932;DHT22;32670;51.464;11.964;2022-11-14T13:11:41;24.80;43.90
46932;DHT22;32670;51.464;11.964;2022-11-14T13:14:25;24.90;44.00
46932;DHT22;32670;51.464;11.964;2022-11-14T13:33:45;24.90;44.20
46932;DHT22;32670;51.464;11.964;2022-11-14T13:36:43;24.90;44.30
46932;DHT22;32670;51.464;11.964;2022-11-14T13:39:36;24.90;44.40
46932;DHT22;32670;51.464;11.964;2022-11-14T13:48:21;24.90;44.20
46932;DHT22;32670;51.464;11.964;2022-11-14T13:50:53;24.90;44.20
46932;DHT22;32670;51.464;11.964;2022-11-14T13:53:22;24.90;44.30
46932;DHT22;32670;51.464;11.964;2022-11-14T13:55:55;24.90;44.30
46932;DHT22;32670;51.464;11.964;2022-11-14T14:31:16;24.70;44.20
46932;DHT22;32670;51.464;11.964;2022-11-14T14:33:46;24.70;43.70
46932;DHT22;32670;51.464;11.964;2022-11-14T14:38:45;24.70;42.70
46932;DHT22;32670;51.464;11.964;2022-11-14T14:41:12;24.60;43.20
46932;DHT22;32670;51.464;11.964;2022-11-14T14:43:47;24.60;42.10
46932;DHT22;32670;51.464;11.964;2022-11-14T14:46:13;24.60;42.10
46932;DHT22;32670;51.464;11.964;2022-11-14T14:48:41;24.60;42.30
46932;DHT22;32670;51.464;11.964;2022-11-14T14:51:12;24.60;42.70
46932;DHT22;32670;51.464;11.964;2022-11-14T14:53:38;24.60;42.90
46932;DHT22;32670;51.464;11.964;2022-11-14T14:56:06;24.60;43.10
46932;DHT22;32670;51.464;11.964;2022-11-14T14:58:33;24.60;43.20
46932;DHT22;32670;51.464;11.964;2022-11-14T15:01:02;24.60;43.20
46932;DHT22;32670;51.464;11.964;2022-11-14T15:03:35;24.60;43.50
46932;DHT22;32670;51.464;11.964;2022-11-14T15:06:25;24.60;44.00
46932;DHT22;32670;51.464;11.964;2022-11-14T15:09:02;24.60;44.00
46932;DHT22;32670;51.464;11.964;2022-11-14T15:11:32;24.60;43.90
46932;DHT22;32670;51.464;11.964;2022-11-14T15:14:00;24.60;43.90
46932;DHT22;32670;51.464;11.964;2022-11-14T15:16:27;24.60;44.00
46932;DHT22;32670;51.464;11.964;2022-11-14T15:18:54;24.60;44.20
46932;DHT22;32670;51.464;11.964;2022-11-14T15:24:17;24.60;44.20
46932;DHT22;32670;51.464;11.964;2022-11-14T15:26:45;24.60;44.20
46932;DHT22;32670;51.464;11.964;2022-11-14T15:29:17;24.50;44.20
46932;DHT22;32670;51.464;11.964;2022-11-14T15:31:48;24.50;44.80
46932;DHT22;32670;51.464;11.964;2022-11-14T15:34:35;24.60;45.10
46932;DHT22;32670;51.464;11.964;2022-11-14T15:37:20;24.60;44.70
46932;DHT22;32670;51.464;11.964;2022-11-14T15:39:46;24.60;44.90
46932;DHT22;32670;51.464;11.964;2022-11-14T15:42:33;24.50;44.90
46932;DHT22;32670;51.464;11.964;2022-11-14T15:44:58;24.50;45.20
46932;DHT22;32670;51.464;11.964;2022-11-14T15:47:28;24.50;45.30
46932;DHT22;32670;51.464;11.964;2022-11-14T15:50:04;24.60;45.40
46932;DHT22;32670;51.464;11.964;2022-11-14T15:52:34;24.50;45.40
46932;DHT22;32670;51.464;11.964;2022-11-14T15:55:00;24.50;45.40
46932;DHT22;32670;51.464;11.964;2022-11-14T15:57:26;24.50;45.50
46932;DHT22;32670;51.464;11.964;2022-11-14T15:59:52;24.60;45.60
46932;DHT22;32670;51.464;11.964;2022-11-14T16:02:27;24.50;45.40
46932;DHT22;32670;51.464;11.964;2022-11-14T16:04:54;24.50;45.60
46932;DHT22;32670;51.464;11.964;2022-11-14T16:07:20;24.50;45.60
46932;DHT22;32670;51.464;11.964;2022-11-14T16:09:46;24.50;45.40
46932;DHT22;32670;51.464;11.964;2022-11-14T16:12:12;24.50;45.60
46932;DHT22;32670;51.464;11.964;2022-11-14T16:14:37;24.60;45.80
46932;DHT22;32670;51.464;11.964;2022-11-14T16:17:03;24.50;45.50
46932;DHT22;32670;51.464;11.964;2022-11-14T16:19:29;24.50;45.00
46932;DHT22;32670;51.464;11.964;2022-11-14T16:21:58;24.50;44.90
46932;DHT22;32670;51.464;11.964;2022-11-14T16:24:27;24.50;45.20
46932;DHT22;32670;51.464;11.964;2022-11-14T16:26:54;24.50;45.00
46932;DHT22;32670;51.464;11.964;2022-11-14T16:29:20;24.50;44.80
46932;DHT22;32670;51.464;11.964;2022-11-14T16:31:45;24.60;44.90
46932;DHT22;32670;51.464;11.964;2022-11-14T16:34:20;24.60;44.90
46932;DHT22;32670;51.464;11.964;2022-11-14T16:36:45;24.70;45.10
46932;DHT22;32670;51.464;11.964;2022-11-14T16:39:13;24.60;44.80
46932;DHT22;32670;51.464;11.964;2022-11-14T16:41:39;24.60;44.80
46932;DHT22;32670;51.464;11.964;2022-11-14T16:44:05;24.60;45.00
46932;DHT22;32670;51.464;11.964;2022-11-14T16:46:30;24.60;45.00
46932;DHT22;32670;51.464;11.964;2022-11-14T16:48:56;24.60;45.40
46932;DHT22;32670;51.464;11.964;2022-11-14T16:51:21;24.60;45.70
46932;DHT22;32670;51.464;11.964;2022-11-14T16:53:47;24.60;46.20
46932;DHT22;32670;51.464;11.964;2022-11-14T16:56:12;24.60;46.90
46932;DHT22;32670;51.464;11.964;2022-11-14T16:58:38;24.60;47.30
46932;DHT22;32670;51.464;11.964;2022-11-14T17:01:06;24.60;47.70
46932;DHT22;32670;51.464;11.964;2022-11-14T17:03:32;24.60;47.30
46932;DHT22;32670;51.464;11.964;2022-11-14T17:05:58;24.50;47.20